sensor_id;sensor_type;location;lat;lon;timestamp;P1;durP1;ratioP1;P2;durP2;ratioP2
29206;SDS011;16247;50.840;4.382;2023-03-01T00:00:39;16.98;;;9.57;;
29206;SDS011;16247;50.840;4.382;2023-03-01T00:03:05;15.68;;;8.98;;
29206;SDS011;16247;50.840;4.382;2023-03-01T00:05:33;12.18;;;9.40;;
29206;SDS011;16247;50.840;4.382;2023-03-01T00:07:59;13.27;;;8.93;;
29206;SDS011;16247;50.840;4.382;2023-03-01T00:10:25;10.50;;;8.32;;
29206;SDS011;16247;50.840;4.382;2023-03-01T00:12:51;12.50;;;8.98;;
29206;SDS011;16247;50.840;4.382;2023-03-01T00:15:17;13.25;;;8.38;;
29206;SDS011;16247;50.840;4.382;2023-03-01T00:21:16;12.05;;;8.32;;
29206;SDS011;16247;50.840;4.382;2023-03-01T00:27:04;13.23;;;8.98;;
29206;SDS011;16247;50.840;4.382;2023-03-01T00:29:35;12.77;;;8.65;;
29206;SDS011;16247;50.840;4.382;2023-03-01T00:34:53;14.57;;;9.07;;
29206;SDS011;16247;50.840;4.382;2023-03-01T00:40:41;18.35;;;8.93;;
29206;SDS011;16247;50.840;4.382;2023-03-01T00:43:08;11.60;;;8.40;;
29206;SDS011;16247;50.840;4.382;2023-03-01T00:45:41;11.35;;;8.90;;
29206;SDS011;16247;50.840;4.382;2023-03-01T00:48:07;16.08;;;9.98;;
29206;SDS011;16247;50.840;4.382;2023-03-01T00:50:32;11.75;;;8.48;;
29206;SDS011;16247;50.840;4.382;2023-03-01T00:52:58;11.80;;;8.40;;
29206;SDS011;16247;50.840;4.382;2023-03-01T00:55:24;12.15;;;9.13;;
29206;SDS011;16247;50.840;4.382;2023-03-01T00:57:50;12.90;;;8.93;;
29206;SDS011;16247;50.840;4.382;2023-03-01T01:00:16;11.20;;;9.10;;
29206;SDS011;16247;50.840;4.382;2023-03-01T01:02:42;12.05;;;8.68;;
29206;SDS011;16247;50.840;4.382;2023-03-01T01:05:08;14.02;;;9.07;;
29206;SDS011;16247;50.840;4.382;2023-03-01T01:07:34;12.60;;;8.73;;
29206;SDS011;16247;50.840;4.382;2023-03-01T01:10:00;13.48;;;9.20;;
29206;SDS011;16247;50.840;4.382;2023-03-01T01:12:27;14.88;;;9.13;;
29206;SDS011;16247;50.840;4.382;2023-03-01T01:14:52;12.55;;;8.77;;
29206;SDS011;16247;50.840;4.382;2023-03-01T01:17:20;15.38;;;9.20;;
29206;SDS011;16247;50.840;4.382;2023-03-01T01:19:45;12.77;;;9.23;;
29206;SDS011;16247;50.840;4.382;2023-03-01T01:22:11;13.50;;;9.57;;
29206;SDS011;16247;50.840;4.382;2023-03-01T01:24:37;13.60;;;8.98;;
29206;SDS011;16247;50.840;4.382;2023-03-01T01:27:02;16.50;;;9.18;;
29206;SDS011;16247;50.840;4.382;2023-03-01T01:29:28;16.75;;;9.35;;
29206;SDS011;16247;50.840;4.382;2023-03-01T01:31:54;15.00;;;9.55;;
29206;SDS011;16247;50.840;4.382;2023-03-01T01:34:20;11.45;;;7.90;;
29206;SDS011;16247;50.840;4.382;2023-03-01T01:36:50;12.05;;;9.20;;
29206;SDS011;16247;50.840;4.382;2023-03-01T01:39:20;13.68;;;8.13;;
29206;SDS011;16247;50.840;4.382;2023-03-01T01:41:49;11.45;;;8.93;;
29206;SDS011;16247;50.840;4.382;2023-03-01T01:44:19;14.77;;;8.40;;
29206;SDS011;16247;50.840;4.382;2023-03-01T01:47:04;13.90;;;8.52;;
29206;SDS011;16247;50.840;4.382;2023-03-01T01:52:19;11.93;;;7.97;;
29206;SDS011;16247;50.840;4.382;2023-03-01T01:58:13;10.63;;;8.77;;
29206;SDS011;16247;50.840;4.382;2023-03-01T02:00:42;14.05;;;9.45;;
29206;SDS011;16247;50.840;4.382;2023-03-01T02:03:12;11.32;;;8.23;;
29206;SDS011;16247;50.840;4.382;2023-03-01T02:05:53;11.88;;;8.15;;
29206;SDS011;16247;50.840;4.382;2023-03-01T02:08:25;11.65;;;8.50;;
29206;SDS011;16247;50.840;4.382;2023-03-01T02:10:55;10.93;;;7.97;;
29206;SDS011;16247;50.840;4.382;2023-03-01T02:13:24;14.13;;;8.88;;
29206;SDS011;16247;50.840;4.382;2023-03-01T02:15:50;11.10;;;8.63;;
29206;SDS011;16247;50.840;4.382;2023-03-01T02:18:17;12.23;;;8.35;;
29206;SDS011;16247;50.840;4.382;2023-03-01T02:21:04;14.18;;;8.88;;
29206;SDS011;16247;50.840;4.382;2023-03-01T02:23:35;12.27;;;8.57;;
29206;SDS011;16247;50.840;4.382;2023-03-01T02:26:26;17.15;;;9.05;;
29206;SDS011;16247;50.840;4.382;2023-03-01T02:28:59;12.85;;;8.60;;
29206;SDS011;16247;50.840;4.382;2023-03-01T02:31:27;13.88;;;8.90;;
29206;SDS011;16247;50.840;4.382;2023-03-01T02:34:18;11.23;;;8.23;;
29206;SDS011;16247;50.840;4.382;2023-03-01T02:37:30;15.85;;;8.95;;
29206;SDS011;16247;50.840;4.382;2023-03-01T02:39:42;11.68;;;8.23;;
29206;SDS011;16247;50.840;4.382;2023-03-01T02:42:18;13.20;;;8.15;;
29206;SDS011;16247;50.840;4.382;2023-03-01T02:44:52;13.00;;;8.48;;
29206;SDS011;16247;50.840;4.382;2023-03-01T02:56:21;16.05;;;9.10;;
29206;SDS011;16247;50.840;4.382;2023-03-01T02:58:47;12.82;;;8.68;;
29206;SDS011;16247;50.840;4.382;2023-03-01T03:01:17;18.65;;;9.80;;
29206;SDS011;16247;50.840;4.382;2023-03-01T03:03:43;15.95;;;9.05;;
29206;SDS011;16247;50.840;4.382;2023-03-01T03:06:10;13.30;;;9.82;;
29206;SDS011;16247;50.840;4.382;2023-03-01T03:08:35;13.80;;;8.75;;
29206;SDS011;16247;50.840;4.382;2023-03-01T03:11:01;13.63;;;8.32;;
29206;SDS011;16247;50.840;4.382;2023-03-01T03:13:27;13.40;;;9.57;;
29206;SDS011;16247;50.840;4.382;2023-03-01T03:15:54;14.00;;;9.05;;
29206;SDS011;16247;50.840;4.382;2023-03-01T03:18:21;13.48;;;8.68;;
29206;SDS011;16247;50.840;4.382;2023-03-01T03:20:51;14.90;;;10.00;;
29206;SDS011;16247;50.840;4.382;2023-03-01T03:23:19;14.70;;;9.45;;
29206;SDS011;16247;50.840;4.382;2023-03-01T03:25:47;14.68;;;9.07;;
29206;SDS011;16247;50.840;4.382;2023-03-01T03:28:14;13.23;;;8.65;;
29206;SDS011;16247;50.840;4.382;2023-03-01T03:34:02;12.65;;;9.02;;
29206;SDS011;16247;50.840;4.382;2023-03-01T03:36:29;13.43;;;8.50;;
29206;SDS011;16247;50.840;4.382;2023-03-01T03:38:55;11.77;;;8.88;;
29206;SDS011;16247;50.840;4.382;2023-03-01T03:41:21;17.05;;;9.25;;
29206;SDS011;16247;50.840;4.382;2023-03-01T03:43:55;12.07;;;9.30;;
29206;SDS011;16247;50.840;4.382;2023-03-01T03:46:21;13.45;;;9.77;;
29206;SDS011;16247;50.840;4.382;2023-03-01T03:48:46;13.75;;;9.48;;
29206;SDS011;16247;50.840;4.382;2023-03-01T03:51:13;17.52;;;8.75;;
29206;SDS011;16247;50.840;4.382;2023-03-01T03:53:40;12.35;;;9.32;;
29206;SDS011;16247;50.840;4.382;2023-03-01T03:56:07;15.27;;;9.43;;
29206;SDS011;16247;50.840;4.382;2023-03-01T03:58:33;13.98;;;9.43;;
29206;SDS011;16247;50.840;4.382;2023-03-01T04:00:59;16.88;;;8.95;;
29206;SDS011;16247;50.840;4.382;2023-03-01T04:03:26;14.10;;;9.13;;
29206;SDS011;16247;50.840;4.382;2023-03-01T04:05:53;18.88;;;10.32;;
29206;SDS011;16247;50.840;4.382;2023-03-01T04:08:19;13.55;;;8.40;;
29206;SDS011;16247;50.840;4.382;2023-03-01T04:10:47;13.70;;;9.53;;
29206;SDS011;16247;50.840;4.382;2023-03-01T04:13:14;14.73;;;9.30;;
29206;SDS011;16247;50.840;4.382;2023-03-01T04:15:46;14.23;;;9.82;;
29206;SDS011;16247;50.840;4.382;2023-03-01T04:18:17;15.60;;;9.77;;
29206;SDS011;16247;50.840;4.382;2023-03-01T04:20:44;16.15;;;9.50;;
29206;SDS011;16247;50.840;4.382;2023-03-01T04:23:14;13.90;;;9.40;;
29206;SDS011;16247;50.840;4.382;2023-03-01T04:26:02;17.58;;;9.57;;
29206;SDS011;16247;50.840;4.382;2023-03-01T04:28:38;14.60;;;9.32;;
29206;SDS011;16247;50.840;4.382;2023-03-01T04:31:17;16.55;;;9.25;;
29206;SDS011;16247;50.840;4.382;2023-03-01T04:33:47;13.40;;;9.10;;
29206;SDS011;16247;50.840;4.382;2023-03-01T04:36:17;16.42;;;9.70;;
29206;SDS011;16247;50.840;4.382;2023-03-01T04:38:45;15.73;;;8.82;;
29206;SDS011;16247;50.840;4.382;2023-03-01T04:41:16;16.10;;;9.30;;
29206;SDS011;16247;50.840;4.382;2023-03-01T04:43:43;12.63;;;8.68;;
29206;SDS011;16247;50.840;4.382;2023-03-01T04:46:13;14.75;;;10.13;;
29206;SDS011;16247;50.840;4.382;2023-03-01T04:48:41;15.23;;;9.25;;
29206;SDS011;16247;50.840;4.382;2023-03-01T04:51:08;14.03;;;9.83;;
29206;SDS011;16247;50.840;4.382;2023-03-01T04:53:34;14.77;;;9.68;;
29206;SDS011;16247;50.840;4.382;2023-03-01T04:56:03;13.57;;;9.38;;
29206;SDS011;16247;50.840;4.382;2023-03-01T04:58:29;16.95;;;9.05;;
29206;SDS011;16247;50.840;4.382;2023-03-01T05:00:55;12.98;;;9.15;;
29206;SDS011;16247;50.840;4.382;2023-03-01T05:03:21;13.65;;;9.75;;
29206;SDS011;16247;50.840;4.382;2023-03-01T05:05:50;13.75;;;9.20;;
29206;SDS011;16247;50.840;4.382;2023-03-01T05:08:17;17.35;;;9.85;;
29206;SDS011;16247;50.840;4.382;2023-03-01T05:10:51;15.88;;;10.18;;
29206;SDS011;16247;50.840;4.382;2023-03-01T05:13:17;13.05;;;9.30;;
29206;SDS011;16247;50.840;4.382;2023-03-01T05:22:11;15.80;;;9.15;;
29206;SDS011;16247;50.840;4.382;2023-03-01T05:24:38;18.17;;;9.77;;
29206;SDS011;16247;50.840;4.382;2023-03-01T05:27:04;13.30;;;9.60;;
29206;SDS011;16247;50.840;4.382;2023-03-01T05:29:30;17.63;;;10.45;;
29206;SDS011;16247;50.840;4.382;2023-03-01T05:32:00;16.17;;;9.25;;
29206;SDS011;16247;50.840;4.382;2023-03-01T05:34:34;13.88;;;9.52;;
29206;SDS011;16247;50.840;4.382;2023-03-01T05:37:01;17.75;;;9.90;;
29206;SDS011;16247;50.840;4.382;2023-03-01T05:39:35;13.95;;;9.30;;
29206;SDS011;16247;50.840;4.382;2023-03-01T05:44:36;14.70;;;9.23;;
29206;SDS011;16247;50.840;4.382;2023-03-01T05:47:02;14.73;;;9.35;;
29206;SDS011;16247;50.840;4.382;2023-03-01T05:49:28;15.13;;;10.18;;
29206;SDS011;16247;50.840;4.382;2023-03-01T05:54:26;15.23;;;9.68;;
29206;SDS011;16247;50.840;4.382;2023-03-01T05:56:52;16.33;;;10.15;;
29206;SDS011;16247;50.840;4.382;2023-03-01T05:59:19;19.88;;;9.40;;
29206;SDS011;16247;50.840;4.382;2023-03-01T06:02:02;17.05;;;10.40;;
29206;SDS011;16247;50.840;4.382;2023-03-01T06:04:27;19.08;;;10.70;;
29206;SDS011;16247;50.840;4.382;2023-03-01T06:06:53;19.83;;;10.68;;
29206;SDS011;16247;50.840;4.382;2023-03-01T06:09:19;19.35;;;10.25;;
29206;SDS011;16247;50.840;4.382;2023-03-01T06:11:44;14.80;;;9.82;;
29206;SDS011;16247;50.840;4.382;2023-03-01T06:14:10;12.98;;;9.52;;
29206;SDS011;16247;50.840;4.382;2023-03-01T06:16:39;16.17;;;10.25;;
29206;SDS011;16247;50.840;4.382;2023-03-01T06:19:05;16.30;;;11.07;;
29206;SDS011;16247;50.840;4.382;2023-03-01T06:21:31;14.73;;;9.88;;
29206;SDS011;16247;50.840;4.382;2023-03-01T06:24:00;17.50;;;10.10;;
29206;SDS011;16247;50.840;4.382;2023-03-01T06:28:53;15.18;;;8.80;;
29206;SDS011;16247;50.840;4.382;2023-03-01T06:31:18;17.20;;;10.88;;
29206;SDS011;16247;50.840;4.382;2023-03-01T06:33:45;15.50;;;10.27;;
29206;SDS011;16247;50.840;4.382;2023-03-01T06:36:12;17.73;;;10.60;;
29206;SDS011;16247;50.840;4.382;2023-03-01T06:41:35;13.98;;;9.82;;
29206;SDS011;16247;50.840;4.382;2023-03-01T06:44:00;15.82;;;9.43;;
29206;SDS011;16247;50.840;4.382;2023-03-01T06:48:55;17.08;;;9.40;;
29206;SDS011;16247;50.840;4.382;2023-03-01T06:51:21;17.52;;;10.20;;
29206;SDS011;16247;50.840;4.382;2023-03-01T06:53:46;15.88;;;10.38;;
29206;SDS011;16247;50.840;4.382;2023-03-01T06:56:12;21.95;;;10.35;;
29206;SDS011;16247;50.840;4.382;2023-03-01T06:58:38;19.52;;;11.02;;
29206;SDS011;16247;50.840;4.382;2023-03-01T07:01:07;20.00;;;11.05;;
29206;SDS011;16247;50.840;4.382;2023-03-01T07:03:34;16.90;;;10.50;;
29206;SDS011;16247;50.840;4.382;2023-03-01T07:06:00;15.85;;;10.02;;
29206;SDS011;16247;50.840;4.382;2023-03-01T07:08:27;17.50;;;10.57;;
29206;SDS011;16247;50.840;4.382;2023-03-01T07:10:56;14.60;;;10.32;;
29206;SDS011;16247;50.840;4.382;2023-03-01T07:13:22;19.73;;;10.35;;
29206;SDS011;16247;50.840;4.382;2023-03-01T07:15:48;18.55;;;10.95;;
29206;SDS011;16247;50.840;4.382;2023-03-01T07:18:15;15.93;;;10.30;;
29206;SDS011;16247;50.840;4.382;2023-03-01T07:20:43;18.08;;;10.50;;
29206;SDS011;16247;50.840;4.382;2023-03-01T07:23:10;15.05;;;10.45;;
29206;SDS011;16247;50.840;4.382;2023-03-01T07:25:39;19.00;;;11.57;;
29206;SDS011;16247;50.840;4.382;2023-03-01T07:28:05;17.30;;;10.00;;
29206;SDS011;16247;50.840;4.382;2023-03-01T07:30:30;15.30;;;10.38;;
29206;SDS011;16247;50.840;4.382;2023-03-01T07:32:58;15.80;;;10.63;;
29206;SDS011;16247;50.840;4.382;2023-03-01T07:35:25;19.85;;;10.45;;
29206;SDS011;16247;50.840;4.382;2023-03-01T07:37:53;17.98;;;10.57;;
29206;SDS011;16247;50.840;4.382;2023-03-01T07:40:19;17.60;;;10.35;;
29206;SDS011;16247;50.840;4.382;2023-03-01T07:42:46;16.80;;;10.32;;
29206;SDS011;16247;50.840;4.382;2023-03-01T07:45:12;18.00;;;10.30;;
29206;SDS011;16247;50.840;4.382;2023-03-01T07:51:01;18.67;;;11.07;;
29206;SDS011;16247;50.840;4.382;2023-03-01T07:53:29;19.92;;;10.95;;
29206;SDS011;16247;50.840;4.382;2023-03-01T07:56:06;18.77;;;11.20;;
29206;SDS011;16247;50.840;4.382;2023-03-01T07:58:41;18.85;;;10.95;;
29206;SDS011;16247;50.840;4.382;2023-03-01T08:01:15;23.33;;;12.50;;
29206;SDS011;16247;50.840;4.382;2023-03-01T08:06:35;14.65;;;9.70;;
29206;SDS011;16247;50.840;4.382;2023-03-01T08:09:06;17.27;;;10.43;;
29206;SDS011;16247;50.840;4.382;2023-03-01T08:11:38;20.52;;;10.98;;
29206;SDS011;16247;50.840;4.382;2023-03-01T08:14:08;21.90;;;10.95;;
29206;SDS011;16247;50.840;4.382;2023-03-01T08:16:42;19.85;;;11.52;;
29206;SDS011;16247;50.840;4.382;2023-03-01T08:19:16;20.83;;;10.63;;
29206;SDS011;16247;50.840;4.382;2023-03-01T08:21:54;18.13;;;11.35;;
29206;SDS011;16247;50.840;4.382;2023-03-01T08:27:47;21.23;;;11.20;;
29206;SDS011;16247;50.840;4.382;2023-03-01T08:30:32;15.68;;;10.90;;
29206;SDS011;16247;50.840;4.382;2023-03-01T08:33:02;21.25;;;10.85;;
29206;SDS011;16247;50.840;4.382;2023-03-01T08:35:30;22.88;;;12.90;;
29206;SDS011;16247;50.840;4.382;2023-03-01T08:38:17;17.63;;;11.98;;
29206;SDS011;16247;50.840;4.382;2023-03-01T08:44:13;20.20;;;11.80;;
29206;SDS011;16247;50.840;4.382;2023-03-01T08:46:42;18.67;;;11.55;;
29206;SDS011;16247;50.840;4.382;2023-03-01T08:51:46;17.92;;;10.52;;
29206;SDS011;16247;50.840;4.382;2023-03-01T08:56:44;22.70;;;11.95;;
29206;SDS011;16247;50.840;4.382;2023-03-01T08:59:14;16.42;;;11.15;;
29206;SDS011;16247;50.840;4.382;2023-03-01T09:01:45;17.85;;;11.23;;
29206;SDS011;16247;50.840;4.382;2023-03-01T09:04:11;19.00;;;13.00;;
29206;SDS011;16247;50.840;4.382;2023-03-01T09:06:39;17.38;;;11.25;;
29206;SDS011;16247;50.840;4.382;2023-03-01T09:09:05;17.92;;;12.27;;
29206;SDS011;16247;50.840;4.382;2023-03-01T09:11:40;20.10;;;12.15;;
29206;SDS011;16247;50.840;4.382;2023-03-01T09:14:06;20.40;;;11.88;;
29206;SDS011;16247;50.840;4.382;2023-03-01T09:16:36;20.52;;;11.93;;
29206;SDS011;16247;50.840;4.382;2023-03-01T09:21:31;20.27;;;11.63;;
29206;SDS011;16247;50.840;4.382;2023-03-01T09:23:57;23.55;;;11.95;;
29206;SDS011;16247;50.840;4.382;2023-03-01T09:26:23;18.33;;;11.23;;
29206;SDS011;16247;50.840;4.382;2023-03-01T09:28:50;21.90;;;11.27;;
29206;SDS011;16247;50.840;4.382;2023-03-01T09:31:19;21.08;;;11.55;;
29206;SDS011;16247;50.840;4.382;2023-03-01T09:33:47;22.17;;;12.93;;
29206;SDS011;16247;50.840;4.382;2023-03-01T09:38:43;18.58;;;11.90;;
29206;SDS011;16247;50.840;4.382;2023-03-01T09:44:18;18.58;;;11.65;;
29206;SDS011;16247;50.840;4.382;2023-03-01T09:49:27;19.52;;;11.75;;
29206;SDS011;16247;50.840;4.382;2023-03-01T09:52:12;18.45;;;12.27;;
29206;SDS011;16247;50.840;4.382;2023-03-01T09:55:01;20.00;;;13.38;;
29206;SDS011;16247;50.840;4.382;2023-03-01T09:57:43;19.75;;;11.75;;
29206;SDS011;16247;50.840;4.382;2023-03-01T10:08:55;21.77;;;12.88;;
29206;SDS011;16247;50.840;4.382;2023-03-01T10:11:31;19.38;;;12.45;;
29206;SDS011;16247;50.840;4.382;2023-03-01T10:14:13;22.75;;;14.40;;
29206;SDS011;16247;50.840;4.382;2023-03-01T10:20:24;17.70;;;11.77;;
29206;SDS011;16247;50.840;4.382;2023-03-01T10:23:15;18.73;;;11.57;;
29206;SDS011;16247;50.840;4.382;2023-03-01T10:32:39;17.17;;;12.98;;
29206;SDS011;16247;50.840;4.382;2023-03-01T10:41:07;17.42;;;11.35;;
29206;SDS011;16247;50.840;4.382;2023-03-01T10:43:47;17.65;;;9.95;;
29206;SDS011;16247;50.840;4.382;2023-03-01T10:49:51;27.02;;;12.32;;
29206;SDS011;16247;50.840;4.382;2023-03-01T10:52:25;20.50;;;11.60;;
29206;SDS011;16247;50.840;4.382;2023-03-01T10:58:28;18.30;;;12.00;;
29206;SDS011;16247;50.840;4.382;2023-03-01T11:00:59;19.58;;;11.05;;
29206;SDS011;16247;50.840;4.382;2023-03-01T11:03:34;18.95;;;11.32;;
29206;SDS011;16247;50.840;4.382;2023-03-01T11:06:19;19.33;;;10.70;;
29206;SDS011;16247;50.840;4.382;2023-03-01T11:08:49;16.45;;;10.18;;
29206;SDS011;16247;50.840;4.382;2023-03-01T11:11:32;17.58;;;10.82;;
29206;SDS011;16247;50.840;4.382;2023-03-01T11:14:00;17.98;;;10.75;;
29206;SDS011;16247;50.840;4.382;2023-03-01T11:16:40;14.50;;;10.23;;
29206;SDS011;16247;50.840;4.382;2023-03-01T11:21:38;14.80;;;10.50;;
29206;SDS011;16247;50.840;4.382;2023-03-01T11:24:15;15.00;;;10.95;;
29206;SDS011;16247;50.840;4.382;2023-03-01T11:26:45;16.90;;;10.30;;
29206;SDS011;16247;50.840;4.382;2023-03-01T11:32:24;15.48;;;10.02;;
29206;SDS011;16247;50.840;4.382;2023-03-01T11:35:08;17.55;;;11.23;;
29206;SDS011;16247;50.840;4.382;2023-03-01T11:44:05;14.60;;;10.77;;
29206;SDS011;16247;50.840;4.382;2023-03-01T11:46:51;14.95;;;10.10;;
29206;SDS011;16247;50.840;4.382;2023-03-01T11:49:49;15.93;;;10.30;;
29206;SDS011;16247;50.840;4.382;2023-03-01T11:52:42;21.38;;;11.18;;
29206;SDS011;16247;50.840;4.382;2023-03-01T12:01:05;15.70;;;10.32;;
29206;SDS011;16247;50.840;4.382;2023-03-01T12:06:52;13.32;;;9.95;;
29206;SDS011;16247;50.840;4.382;2023-03-01T12:12:36;18.75;;;10.70;;
29206;SDS011;16247;50.840;4.382;2023-03-01T12:15:29;17.60;;;10.63;;
29206;SDS011;16247;50.840;4.382;2023-03-01T12:23:50;15.65;;;10.68;;
29206;SDS011;16247;50.840;4.382;2023-03-01T12:31:53;17.92;;;10.60;;
29206;SDS011;16247;50.840;4.382;2023-03-01T12:35:06;15.45;;;9.68;;
29206;SDS011;16247;50.840;4.382;2023-03-01T12:40:37;14.32;;;9.52;;
29206;SDS011;16247;50.840;4.382;2023-03-01T12:43:27;14.75;;;9.23;;
29206;SDS011;16247;50.840;4.382;2023-03-01T12:46:27;13.38;;;8.75;;
29206;SDS011;16247;50.840;4.382;2023-03-01T12:51:56;16.42;;;9.82;;
29206;SDS011;16247;50.840;4.382;2023-03-01T12:54:28;15.20;;;9.25;;
29206;SDS011;16247;50.840;4.382;2023-03-01T12:56:57;11.98;;;9.32;;
29206;SDS011;16247;50.840;4.382;2023-03-01T12:59:34;16.15;;;9.30;;
29206;SDS011;16247;50.840;4.382;2023-03-01T13:02:23;19.88;;;9.52;;
29206;SDS011;16247;50.840;4.382;2023-03-01T13:08:16;13.45;;;8.98;;
29206;SDS011;16247;50.840;4.382;2023-03-01T13:11:11;13.70;;;9.20;;
29206;SDS011;16247;50.840;4.382;2023-03-01T13:13:47;15.38;;;9.45;;
29206;SDS011;16247;50.840;4.382;2023-03-01T13:16:40;14.57;;;9.48;;
29206;SDS011;16247;50.840;4.382;2023-03-01T13:19:16;15.25;;;10.15;;
29206;SDS011;16247;50.840;4.382;2023-03-01T13:21:47;13.63;;;9.43;;
29206;SDS011;16247;50.840;4.382;2023-03-01T13:24:27;14.55;;;10.10;;
29206;SDS011;16247;50.840;4.382;2023-03-01T13:32:22;14.40;;;10.10;;
29206;SDS011;16247;50.840;4.382;2023-03-01T13:34:57;16.73;;;10.05;;
29206;SDS011;16247;50.840;4.382;2023-03-01T13:37:53;17.27;;;9.15;;
29206;SDS011;16247;50.840;4.382;2023-03-01T13:40:58;14.07;;;9.57;;
29206;SDS011;16247;50.840;4.382;2023-03-01T13:43:29;15.73;;;9.20;;
29206;SDS011;16247;50.840;4.382;2023-03-01T13:46:03;14.88;;;9.63;;
29206;SDS011;16247;50.840;4.382;2023-03-01T13:48:36;14.38;;;9.65;;
29206;SDS011;16247;50.840;4.382;2023-03-01T13:51:07;13.27;;;9.40;;
29206;SDS011;16247;50.840;4.382;2023-03-01T13:53:38;14.88;;;9.35;;
29206;SDS011;16247;50.840;4.382;2023-03-01T13:59:17;17.27;;;8.73;;
29206;SDS011;16247;50.840;4.382;2023-03-01T14:08:18;17.80;;;12.82;;
29206;SDS011;16247;50.840;4.382;2023-03-01T14:10:53;21.65;;;14.27;;
29206;SDS011;16247;50.840;4.382;2023-03-01T14:13:28;18.40;;;13.00;;
29206;SDS011;16247;50.840;4.382;2023-03-01T14:19:07;14.20;;;10.68;;
29206;SDS011;16247;50.840;4.382;2023-03-01T14:21:46;15.10;;;10.07;;
29206;SDS011;16247;50.840;4.382;2023-03-01T14:24:17;15.43;;;10.48;;
29206;SDS011;16247;50.840;4.382;2023-03-01T14:26:50;16.30;;;11.82;;
29206;SDS011;16247;50.840;4.382;2023-03-01T14:34:44;19.35;;;13.80;;
29206;SDS011;16247;50.840;4.382;2023-03-01T14:37:18;15.90;;;11.27;;
29206;SDS011;16247;50.840;4.382;2023-03-01T14:39:44;18.52;;;11.80;;
29206;SDS011;16247;50.840;4.382;2023-03-01T14:42:11;22.45;;;15.40;;
29206;SDS011;16247;50.840;4.382;2023-03-01T14:44:40;15.88;;;10.85;;
29206;SDS011;16247;50.840;4.382;2023-03-01T14:47:12;26.52;;;18.23;;
29206;SDS011;16247;50.840;4.382;2023-03-01T14:49:44;19.13;;;11.48;;
29206;SDS011;16247;50.840;4.382;2023-03-01T14:52:17;18.38;;;10.25;;
29206;SDS011;16247;50.840;4.382;2023-03-01T14:57:57;16.10;;;9.63;;
29206;SDS011;16247;50.840;4.382;2023-03-01T15:00:24;15.15;;;10.38;;
29206;SDS011;16247;50.840;4.382;2023-03-01T15:02:54;13.98;;;10.07;;
29206;SDS011;16247;50.840;4.382;2023-03-01T15:05:31;14.75;;;9.57;;
29206;SDS011;16247;50.840;4.382;2023-03-01T15:07:58;15.07;;;9.85;;
29206;SDS011;16247;50.840;4.382;2023-03-01T15:10:27;16.98;;;10.40;;
29206;SDS011;16247;50.840;4.382;2023-03-01T15:12:55;16.52;;;10.88;;
29206;SDS011;16247;50.840;4.382;2023-03-01T15:15:36;16.15;;;9.38;;
29206;SDS011;16247;50.840;4.382;2023-03-01T15:18:19;14.65;;;10.05;;
29206;SDS011;16247;50.840;4.382;2023-03-01T15:20:47;15.48;;;10.45;;
29206;SDS011;16247;50.840;4.382;2023-03-01T15:23:24;17.80;;;10.00;;
29206;SDS011;16247;50.840;4.382;2023-03-01T15:25:53;11.90;;;9.25;;
29206;SDS011;16247;50.840;4.382;2023-03-01T15:28:25;17.73;;;10.52;;
29206;SDS011;16247;50.840;4.382;2023-03-01T15:30:57;22.33;;;10.13;;
29206;SDS011;16247;50.840;4.382;2023-03-01T15:33:28;14.98;;;9.68;;
29206;SDS011;16247;50.840;4.382;2023-03-01T15:35:55;13.98;;;9.80;;
29206;SDS011;16247;50.840;4.382;2023-03-01T15:41:25;14.98;;;9.73;;
29206;SDS011;16247;50.840;4.382;2023-03-01T15:44:14;14.50;;;9.68;;
29206;SDS011;16247;50.840;4.382;2023-03-01T15:46:50;14.35;;;10.25;;
29206;SDS011;16247;50.840;4.382;2023-03-01T15:55:20;14.40;;;9.70;;
29206;SDS011;16247;50.840;4.382;2023-03-01T15:58:17;16.88;;;9.63;;
29206;SDS011;16247;50.840;4.382;2023-03-01T16:01:38;17.05;;;9.52;;
29206;SDS011;16247;50.840;4.382;2023-03-01T16:04:38;16.65;;;9.85;;
29206;SDS011;16247;50.840;4.382;2023-03-01T16:07:42;17.08;;;9.73;;
29206;SDS011;16247;50.840;4.382;2023-03-01T16:10:35;14.80;;;10.05;;
29206;SDS011;16247;50.840;4.382;2023-03-01T16:13:58;14.05;;;9.35;;
29206;SDS011;16247;50.840;4.382;2023-03-01T16:17:14;13.65;;;9.55;;
29206;SDS011;16247;50.840;4.382;2023-03-01T16:26:36;15.43;;;8.93;;
29206;SDS011;16247;50.840;4.382;2023-03-01T16:32:01;15.80;;;10.05;;
29206;SDS011;16247;50.840;4.382;2023-03-01T17:13:14;20.20;;;9.10;;
29206;SDS011;16247;50.840;4.382;2023-03-01T17:15:55;15.93;;;9.40;;
29206;SDS011;16247;50.840;4.382;2023-03-01T17:18:26;14.05;;;9.85;;
29206;SDS011;16247;50.840;4.382;2023-03-01T17:20:59;19.90;;;14.93;;
29206;SDS011;16247;50.840;4.382;2023-03-01T17:23:27;13.85;;;9.93;;
29206;SDS011;16247;50.840;4.382;2023-03-01T17:25:55;13.30;;;9.27;;
29206;SDS011;16247;50.840;4.382;2023-03-01T17:28:26;14.27;;;10.38;;
29206;SDS011;16247;50.840;4.382;2023-03-01T17:30:55;14.43;;;9.18;;
29206;SDS011;16247;50.840;4.382;2023-03-01T17:33:30;15.55;;;9.45;;
29206;SDS011;16247;50.840;4.382;2023-03-01T17:36:00;15.35;;;9.30;;
29206;SDS011;16247;50.840;4.382;2023-03-01T17:38:27;15.13;;;9.65;;
29206;SDS011;16247;50.840;4.382;2023-03-01T17:40:57;16.85;;;9.90;;
29206;SDS011;16247;50.840;4.382;2023-03-01T17:43:24;16.67;;;9.23;;
29206;SDS011;16247;50.840;4.382;2023-03-01T17:45:52;15.52;;;9.32;;
29206;SDS011;16247;50.840;4.382;2023-03-01T17:48:20;11.87;;;8.30;;
29206;SDS011;16247;50.840;4.382;2023-03-01T17:50:47;13.95;;;9.00;;
29206;SDS011;16247;50.840;4.382;2023-03-01T17:53:15;12.02;;;8.90;;
29206;SDS011;16247;50.840;4.382;2023-03-01T17:55:42;13.73;;;8.80;;
29206;SDS011;16247;50.840;4.382;2023-03-01T17:58:11;15.37;;;8.07;;
29206;SDS011;16247;50.840;4.382;2023-03-01T18:00:40;14.15;;;9.20;;
29206;SDS011;16247;50.840;4.382;2023-03-01T18:03:10;14.73;;;8.30;;
29206;SDS011;16247;50.840;4.382;2023-03-01T18:05:35;12.40;;;8.95;;
29206;SDS011;16247;50.840;4.382;2023-03-01T18:10:34;16.25;;;8.80;;
29206;SDS011;16247;50.840;4.382;2023-03-01T18:13:02;14.30;;;8.15;;
29206;SDS011;16247;50.840;4.382;2023-03-01T18:15:30;12.93;;;8.57;;
29206;SDS011;16247;50.840;4.382;2023-03-01T18:17:58;17.98;;;9.57;;
29206;SDS011;16247;50.840;4.382;2023-03-01T18:22:51;12.80;;;7.82;;
29206;SDS011;16247;50.840;4.382;2023-03-01T18:25:18;13.35;;;9.20;;
29206;SDS011;16247;50.840;4.382;2023-03-01T18:27:46;13.73;;;8.23;;
29206;SDS011;16247;50.840;4.382;2023-03-01T18:30:16;14.38;;;9.75;;
29206;SDS011;16247;50.840;4.382;2023-03-01T18:32:47;13.52;;;8.82;;
29206;SDS011;16247;50.840;4.382;2023-03-01T18:35:36;20.33;;;9.27;;
29206;SDS011;16247;50.840;4.382;2023-03-01T18:38:03;14.38;;;8.73;;
29206;SDS011;16247;50.840;4.382;2023-03-01T18:40:36;15.07;;;8.75;;
29206;SDS011;16247;50.840;4.382;2023-03-01T18:43:01;14.43;;;8.45;;
29206;SDS011;16247;50.840;4.382;2023-03-01T18:45:27;15.10;;;9.18;;
29206;SDS011;16247;50.840;4.382;2023-03-01T18:47:56;17.63;;;9.13;;
29206;SDS011;16247;50.840;4.382;2023-03-01T18:50:23;21.52;;;11.13;;
29206;SDS011;16247;50.840;4.382;2023-03-01T18:52:50;16.05;;;8.65;;
29206;SDS011;16247;50.840;4.382;2023-03-01T18:55:27;15.23;;;9.98;;
29206;SDS011;16247;50.840;4.382;2023-03-01T18:57:53;15.75;;;8.98;;
29206;SDS011;16247;50.840;4.382;2023-03-01T19:00:20;15.63;;;9.00;;